Radar AviationWeather DUATS TFRs Wunderground Accuweather Weather.com

alt : Radar

TAFs

KDTW 192113Z 1921/2024 18008KT 3/4SM -SHRA BR VV003 WS015/23040KT
   FM192300 22013G20KT 6SM -SHRA BR BKN025 OVC040
     TEMPO 1923/2002 4SM RA BR OVC008
   FM200700 20013KT 2SM RA BR OVC006
KTOL 192104Z 1921/2018 20012KT 6SM -SHRA OVC035 WS020/21045KT
     TEMPO 1921/1923 4SM -SHRA OVC025
   FM192300 20015G25KT P6SM OVC070
   FM200600 21015G25KT 6SM -SHRA OVC025
   FM201200 21015G25KT P6SM OVC035
KCLE 192057Z 1921/2024 19015G25KT P6SM -SHRA OVC050
   FM200000 20015G30KT P6SM OVC070
KFWA 192056Z 1921/2018 21016KT P6SM -RA BKN025 OVC070 WS020/22055KT
     TEMPO 1922/2001 5SM -RA BR BKN015
   FM201400 21017G27KT 5SM SHRA OVC025
KFDY 192051Z 1921/2018 21015G25KT 6SM -SHRA OVC050
   FM192300 21015G25KT P6SM OVC070
   FM200900 20020G32KT P6SM OVC100
KJXN 192044Z 1921/2018 15008KT 3SM -SHRA BR OVC007 WS020/21045KT
   FM200300 19010KT 1SM RA BR OVC004 WS014/21050KT
   FM201500 21014G23KT 1SM RA BR OVC004 WS014/22055KT

METARs

KDTW 192112Z 18008KT 3/4SM R03R/P6000FT -RA BR SCT002 BKN015 OVC025 08/08 A2990 RMK AO2 SFC VIS 1 P0001 T00830083 $
KJXN 192110Z 18012G19KT 6SM -RA BR BKN008 OVC019 12/11 A2986 RMK AO2 P0001 T01170111
KDUH 192055Z AUTO 21010G15KT 5SM -RA BKN035 OVC042 13/13 A2991 RMK AO2 T01310126
KFWA 192054Z 21017KT 10SM BKN025 BKN070 OVC090 16/14 A2992 RMK PK WND 21027/2009 RAE52 SLP134 P0003 60014 T01560139 55007
KFDY 192053Z AUTO 20016KT 9SM -RA OVC095 16/13 A2996 RMK AO2 SLP145 P0001 60013 T01610133 55014
KTDZ 192053Z AUTO 19012KT 3SM -RA BR BKN043 OVC050 14/13 A2994 RMK AO2 SLP140 P0007 60030 T01390128 55004
KTOL 192052Z 20011KT 5SM -RA BR BKN038 OVC090 14/14 A2992 RMK AO2 SLP135 P0009 60036 T01440144 56017 $
KCLE 192051Z 19015G25KT 7SM -RA FEW075 OVC090 14/13 A3003 RMK AO2 SLP172 P0008 60016 T01440128 56016

alt : Satellite

alt : TFRs